sensor_id;sensor_type;location;lat;lon;timestamp;temperature;humidity
5492;DHT22;2768;53.540;10.224;2023-05-07T00:03:07;9.90;99.90
5492;DHT22;2768;53.540;10.224;2023-05-07T00:09:00;9.80;99.90
5492;DHT22;2768;53.540;10.224;2023-05-07T00:14:55;9.90;99.90
5492;DHT22;2768;53.540;10.224;2023-05-07T00:20:49;10.00;99.90
5492;DHT22;2768;53.540;10.224;2023-05-07T00:26:42;9.90;99.90
5492;DHT22;2768;53.540;10.224;2023-05-07T00:32:36;9.90;99.90
5492;DHT22;2768;53.540;10.224;2023-05-07T00:38:30;9.90;99.90
5492;DHT22;2768;53.540;10.224;2023-05-07T00:44:23;9.90;99.90
5492;DHT22;2768;53.540;10.224;2023-05-07T00:50:18;9.90;99.90
5492;DHT22;2768;53.540;10.224;2023-05-07T00:56:12;9.80;99.90
5492;DHT22;2768;53.540;10.224;2023-05-07T01:02:05;10.00;99.90
5492;DHT22;2768;53.540;10.224;2023-05-07T01:08:01;9.80;99.90
5492;DHT22;2768;53.540;10.224;2023-05-07T01:13:55;9.80;99.90
5492;DHT22;2768;53.540;10.224;2023-05-07T01:19:49;9.90;99.90
5492;DHT22;2768;53.540;10.224;2023-05-07T01:25:52;9.90;99.90
5492;DHT22;2768;53.540;10.224;2023-05-07T01:31:48;9.80;99.90
5492;DHT22;2768;53.540;10.224;2023-05-07T01:37:45;9.80;99.90
5492;DHT22;2768;53.540;10.224;2023-05-07T01:43:41;9.80;99.90
5492;DHT22;2768;53.540;10.224;2023-05-07T01:49:35;9.80;99.90
5492;DHT22;2768;53.540;10.224;2023-05-07T01:55:28;9.80;99.90
5492;DHT22;2768;53.540;10.224;2023-05-07T02:01:24;9.80;99.90
5492;DHT22;2768;53.540;10.224;2023-05-07T02:07:18;9.80;99.90
5492;DHT22;2768;53.540;10.224;2023-05-07T02:13:12;9.70;99.90
5492;DHT22;2768;53.540;10.224;2023-05-07T02:19:06;9.80;99.90
5492;DHT22;2768;53.540;10.224;2023-05-07T02:25:00;9.80;99.90
5492;DHT22;2768;53.540;10.224;2023-05-07T02:30:54;9.90;99.90
5492;DHT22;2768;53.540;10.224;2023-05-07T02:36:49;9.70;99.90
5492;DHT22;2768;53.540;10.224;2023-05-07T02:42:46;9.70;99.90
5492;DHT22;2768;53.540;10.224;2023-05-07T02:48:40;9.70;99.90
5492;DHT22;2768;53.540;10.224;2023-05-07T02:54:35;9.80;99.90
5492;DHT22;2768;53.540;10.224;2023-05-07T03:00:28;9.80;99.90
5492;DHT22;2768;53.540;10.224;2023-05-07T03:06:42;9.70;99.90
5492;DHT22;2768;53.540;10.224;2023-05-07T03:12:37;9.70;99.90
5492;DHT22;2768;53.540;10.224;2023-05-07T03:18:30;9.70;99.90
5492;DHT22;2768;53.540;10.224;2023-05-07T03:24:24;9.70;99.90
5492;DHT22;2768;53.540;10.224;2023-05-07T03:30:19;9.70;99.90
5492;DHT22;2768;53.540;10.224;2023-05-07T03:36:12;9.70;99.90
5492;DHT22;2768;53.540;10.224;2023-05-07T03:42:06;9.70;99.90
5492;DHT22;2768;53.540;10.224;2023-05-07T03:48:01;9.70;99.90
5492;DHT22;2768;53.540;10.224;2023-05-07T03:53:56;9.70;99.90
5492;DHT22;2768;53.540;10.224;2023-05-07T03:59:52;9.60;99.90
5492;DHT22;2768;53.540;10.224;2023-05-07T04:05:46;9.60;99.90
5492;DHT22;2768;53.540;10.224;2023-05-07T04:11:40;9.60;99.90
5492;DHT22;2768;53.540;10.224;2023-05-07T04:17:35;9.70;99.90
5492;DHT22;2768;53.540;10.224;2023-05-07T04:23:30;9.80;99.90
5492;DHT22;2768;53.540;10.224;2023-05-07T04:29:27;9.80;99.90
5492;DHT22;2768;53.540;10.224;2023-05-07T04:35:21;9.90;99.90
5492;DHT22;2768;53.540;10.224;2023-05-07T04:41:16;9.80;99.90
5492;DHT22;2768;53.540;10.224;2023-05-07T04:47:09;9.80;99.90
5492;DHT22;2768;53.540;10.224;2023-05-07T04:53:03;9.90;99.90
5492;DHT22;2768;53.540;10.224;2023-05-07T04:58:58;9.80;99.90
5492;DHT22;2768;53.540;10.224;2023-05-07T05:04:51;9.90;99.90
5492;DHT22;2768;53.540;10.224;2023-05-07T05:10:44;9.80;99.90
5492;DHT22;2768;53.540;10.224;2023-05-07T05:16:42;9.80;99.90
5492;DHT22;2768;53.540;10.224;2023-05-07T05:22:35;9.80;99.90
5492;DHT22;2768;53.540;10.224;2023-05-07T05:28:29;9.80;99.90
5492;DHT22;2768;53.540;10.224;2023-05-07T05:34:24;9.90;99.90
5492;DHT22;2768;53.540;10.224;2023-05-07T05:40:17;9.90;99.90
5492;DHT22;2768;53.540;10.224;2023-05-07T05:46:11;10.00;99.90
5492;DHT22;2768;53.540;10.224;2023-05-07T05:52:07;9.90;99.90
5492;DHT22;2768;53.540;10.224;2023-05-07T05:58:02;9.90;99.90
5492;DHT22;2768;53.540;10.224;2023-05-07T06:03:59;10.00;99.90
5492;DHT22;2768;53.540;10.224;2023-05-07T06:09:55;10.00;99.90
5492;DHT22;2768;53.540;10.224;2023-05-07T06:15:49;10.00;99.90
5492;DHT22;2768;53.540;10.224;2023-05-07T06:21:42;10.00;99.90
5492;DHT22;2768;53.540;10.224;2023-05-07T06:27:36;10.00;99.90
5492;DHT22;2768;53.540;10.224;2023-05-07T06:33:32;10.10;99.90
5492;DHT22;2768;53.540;10.224;2023-05-07T06:39:27;10.10;99.90
5492;DHT22;2768;53.540;10.224;2023-05-07T06:45:22;10.10;99.90
5492;DHT22;2768;53.540;10.224;2023-05-07T06:51:17;10.10;99.90
5492;DHT22;2768;53.540;10.224;2023-05-07T06:57:11;10.10;99.90
5492;DHT22;2768;53.540;10.224;2023-05-07T07:03:06;10.20;99.90
5492;DHT22;2768;53.540;10.224;2023-05-07T07:09:00;10.20;99.90
5492;DHT22;2768;53.540;10.224;2023-05-07T07:14:55;10.20;99.90
5492;DHT22;2768;53.540;10.224;2023-05-07T07:20:50;10.20;99.90
5492;DHT22;2768;53.540;10.224;2023-05-07T07:26:43;10.30;99.90
5492;DHT22;2768;53.540;10.224;2023-05-07T07:32:37;10.40;99.90
5492;DHT22;2768;53.540;10.224;2023-05-07T07:38:32;10.50;99.90
5492;DHT22;2768;53.540;10.224;2023-05-07T07:44:27;10.50;99.90
5492;DHT22;2768;53.540;10.224;2023-05-07T07:50:24;10.50;99.90
5492;DHT22;2768;53.540;10.224;2023-05-07T07:56:24;10.40;99.90
5492;DHT22;2768;53.540;10.224;2023-05-07T08:02:18;10.50;99.90
5492;DHT22;2768;53.540;10.224;2023-05-07T08:08:14;10.50;99.90
5492;DHT22;2768;53.540;10.224;2023-05-07T08:14:09;10.60;99.90
5492;DHT22;2768;53.540;10.224;2023-05-07T08:20:04;10.60;99.90
5492;DHT22;2768;53.540;10.224;2023-05-07T08:25:58;10.60;99.90
5492;DHT22;2768;53.540;10.224;2023-05-07T08:31:53;10.60;99.90
5492;DHT22;2768;53.540;10.224;2023-05-07T08:37:47;10.60;99.90
5492;DHT22;2768;53.540;10.224;2023-05-07T08:43:47;10.70;99.90
5492;DHT22;2768;53.540;10.224;2023-05-07T08:49:43;10.80;99.90
5492;DHT22;2768;53.540;10.224;2023-05-07T08:55:37;11.00;99.90
5492;DHT22;2768;53.540;10.224;2023-05-07T09:01:31;11.00;99.90
5492;DHT22;2768;53.540;10.224;2023-05-07T09:07:30;11.00;99.90
5492;DHT22;2768;53.540;10.224;2023-05-07T09:13:24;11.10;99.90
5492;DHT22;2768;53.540;10.224;2023-05-07T09:19:22;11.20;99.90
5492;DHT22;2768;53.540;10.224;2023-05-07T09:25:28;11.20;99.90
5492;DHT22;2768;53.540;10.224;2023-05-07T09:31:22;11.20;99.90
5492;DHT22;2768;53.540;10.224;2023-05-07T09:37:19;11.20;99.90
5492;DHT22;2768;53.540;10.224;2023-05-07T09:43:14;11.30;99.90
5492;DHT22;2768;53.540;10.224;2023-05-07T09:49:21;11.40;99.90
5492;DHT22;2768;53.540;10.224;2023-05-07T09:55:19;11.40;99.90
5492;DHT22;2768;53.540;10.224;2023-05-07T10:01:14;11.40;99.90
5492;DHT22;2768;53.540;10.224;2023-05-07T10:07:11;11.60;99.90
5492;DHT22;2768;53.540;10.224;2023-05-07T10:13:05;11.60;99.90
5492;DHT22;2768;53.540;10.224;2023-05-07T10:19:08;11.80;99.90
5492;DHT22;2768;53.540;10.224;2023-05-07T10:25:03;11.90;99.90
5492;DHT22;2768;53.540;10.224;2023-05-07T10:31:11;12.00;99.90
5492;DHT22;2768;53.540;10.224;2023-05-07T10:37:12;12.10;99.90
5492;DHT22;2768;53.540;10.224;2023-05-07T10:43:06;12.30;99.90
5492;DHT22;2768;53.540;10.224;2023-05-07T10:49:10;12.40;99.90
5492;DHT22;2768;53.540;10.224;2023-05-07T10:55:26;12.30;99.90
5492;DHT22;2768;53.540;10.224;2023-05-07T11:01:51;12.50;99.90
5492;DHT22;2768;53.540;10.224;2023-05-07T11:07:54;12.40;99.90
5492;DHT22;2768;53.540;10.224;2023-05-07T11:13:54;12.50;99.90
5492;DHT22;2768;53.540;10.224;2023-05-07T11:19:55;12.90;99.90
5492;DHT22;2768;53.540;10.224;2023-05-07T11:26:08;13.10;99.90
5492;DHT22;2768;53.540;10.224;2023-05-07T11:32:04;13.30;99.90
5492;DHT22;2768;53.540;10.224;2023-05-07T11:38:07;13.20;99.90
5492;DHT22;2768;53.540;10.224;2023-05-07T11:44:01;13.40;99.90
5492;DHT22;2768;53.540;10.224;2023-05-07T11:49:56;13.70;99.90
5492;DHT22;2768;53.540;10.224;2023-05-07T11:55:52;14.10;99.90
5492;DHT22;2768;53.540;10.224;2023-05-07T12:01:48;14.10;99.90
5492;DHT22;2768;53.540;10.224;2023-05-07T12:07:42;14.40;99.90
5492;DHT22;2768;53.540;10.224;2023-05-07T12:13:36;14.80;99.90
5492;DHT22;2768;53.540;10.224;2023-05-07T12:19:29;15.10;99.90
5492;DHT22;2768;53.540;10.224;2023-05-07T12:25:24;15.00;99.90
5492;DHT22;2768;53.540;10.224;2023-05-07T12:31:18;15.10;99.90
5492;DHT22;2768;53.540;10.224;2023-05-07T12:37:11;15.30;99.90
5492;DHT22;2768;53.540;10.224;2023-05-07T12:43:07;15.40;99.90
5492;DHT22;2768;53.540;10.224;2023-05-07T12:49:00;15.20;91.30
5492;DHT22;2768;53.540;10.224;2023-05-07T12:54:53;15.10;92.30
5492;DHT22;2768;53.540;10.224;2023-05-07T13:00:50;15.30;88.80
5492;DHT22;2768;53.540;10.224;2023-05-07T13:06:43;15.20;85.10
5492;DHT22;2768;53.540;10.224;2023-05-07T13:12:36;15.20;90.00
5492;DHT22;2768;53.540;10.224;2023-05-07T13:18:32;15.40;86.00
5492;DHT22;2768;53.540;10.224;2023-05-07T13:24:25;15.70;89.10
5492;DHT22;2768;53.540;10.224;2023-05-07T13:30:18;16.10;73.80
5492;DHT22;2768;53.540;10.224;2023-05-07T13:36:13;16.40;56.00
5492;DHT22;2768;53.540;10.224;2023-05-07T13:42:06;17.10;42.70
5492;DHT22;2768;53.540;10.224;2023-05-07T13:47:59;17.70;32.40
5492;DHT22;2768;53.540;10.224;2023-05-07T13:53:54;17.70;15.30
5492;DHT22;2768;53.540;10.224;2023-05-07T13:59:47;17.90;12.40
5492;DHT22;2768;53.540;10.224;2023-05-07T14:05:40;18.40;1.30
5492;DHT22;2768;53.540;10.224;2023-05-07T14:11:35;19.10;1.00
5492;DHT22;2768;53.540;10.224;2023-05-07T14:17:28;20.30;1.00
5492;DHT22;2768;53.540;10.224;2023-05-07T14:23:22;19.90;1.00
5492;DHT22;2768;53.540;10.224;2023-05-07T14:29:19;20.40;1.00
5492;DHT22;2768;53.540;10.224;2023-05-07T14:35:15;20.20;1.00
5492;DHT22;2768;53.540;10.224;2023-05-07T14:41:08;20.40;1.00
5492;DHT22;2768;53.540;10.224;2023-05-07T14:47:03;19.60;1.00
5492;DHT22;2768;53.540;10.224;2023-05-07T14:52:56;18.40;1.00
5492;DHT22;2768;53.540;10.224;2023-05-07T14:58:49;17.70;1.00
5492;DHT22;2768;53.540;10.224;2023-05-07T15:04:44;17.20;1.00
5492;DHT22;2768;53.540;10.224;2023-05-07T15:10:38;17.00;1.00
5492;DHT22;2768;53.540;10.224;2023-05-07T15:16:33;16.60;1.00
5492;DHT22;2768;53.540;10.224;2023-05-07T15:22:28;16.70;1.00
5492;DHT22;2768;53.540;10.224;2023-05-07T15:28:22;16.60;1.00
5492;DHT22;2768;53.540;10.224;2023-05-07T15:34:19;16.60;1.00
5492;DHT22;2768;53.540;10.224;2023-05-07T15:40:14;16.50;1.00
5492;DHT22;2768;53.540;10.224;2023-05-07T15:46:08;16.60;1.00
5492;DHT22;2768;53.540;10.224;2023-05-07T15:52:01;16.50;1.00
5492;DHT22;2768;53.540;10.224;2023-05-07T15:57:55;16.40;1.00
5492;DHT22;2768;53.540;10.224;2023-05-07T16:03:48;16.30;1.00
5492;DHT22;2768;53.540;10.224;2023-05-07T16:09:42;16.20;1.00
5492;DHT22;2768;53.540;10.224;2023-05-07T16:15:37;16.20;1.00
5492;DHT22;2768;53.540;10.224;2023-05-07T16:21:30;16.20;1.00
5492;DHT22;2768;53.540;10.224;2023-05-07T16:27:26;16.20;1.00
5492;DHT22;2768;53.540;10.224;2023-05-07T16:33:20;16.30;1.00
5492;DHT22;2768;53.540;10.224;2023-05-07T16:39:14;16.10;1.00
5492;DHT22;2768;53.540;10.224;2023-05-07T16:45:08;16.00;1.00
5492;DHT22;2768;53.540;10.224;2023-05-07T16:51:03;16.00;1.00
5492;DHT22;2768;53.540;10.224;2023-05-07T16:56:58;15.90;1.00
5492;DHT22;2768;53.540;10.224;2023-05-07T17:02:51;15.90;1.00
5492;DHT22;2768;53.540;10.224;2023-05-07T17:08:46;15.80;1.00
5492;DHT22;2768;53.540;10.224;2023-05-07T17:14:39;15.80;1.00
5492;DHT22;2768;53.540;10.224;2023-05-07T17:20:33;15.70;1.00
5492;DHT22;2768;53.540;10.224;2023-05-07T17:26:28;15.70;1.00
5492;DHT22;2768;53.540;10.224;2023-05-07T17:32:22;15.60;1.00
5492;DHT22;2768;53.540;10.224;2023-05-07T17:38:16;15.50;1.00
5492;DHT22;2768;53.540;10.224;2023-05-07T17:44:10;15.50;1.00
5492;DHT22;2768;53.540;10.224;2023-05-07T17:50:04;15.40;1.00
5492;DHT22;2768;53.540;10.224;2023-05-07T17:56:02;15.40;1.00
5492;DHT22;2768;53.540;10.224;2023-05-07T18:01:56;15.30;1.00
5492;DHT22;2768;53.540;10.224;2023-05-07T18:07:49;15.20;1.00
5492;DHT22;2768;53.540;10.224;2023-05-07T18:13:43;15.20;1.00
5492;DHT22;2768;53.540;10.224;2023-05-07T18:19:37;15.00;1.00
5492;DHT22;2768;53.540;10.224;2023-05-07T18:25:31;15.00;1.00
5492;DHT22;2768;53.540;10.224;2023-05-07T18:31:24;14.90;1.00
5492;DHT22;2768;53.540;10.224;2023-05-07T18:37:19;14.90;1.00
5492;DHT22;2768;53.540;10.224;2023-05-07T18:43:18;14.70;1.00
5492;DHT22;2768;53.540;10.224;2023-05-07T18:49:11;14.70;1.00
5492;DHT22;2768;53.540;10.224;2023-05-07T18:55:06;14.60;1.00
5492;DHT22;2768;53.540;10.224;2023-05-07T19:01:02;14.50;1.00
5492;DHT22;2768;53.540;10.224;2023-05-07T19:06:59;14.50;1.00
5492;DHT22;2768;53.540;10.224;2023-05-07T19:12:53;14.40;1.00
5492;DHT22;2768;53.540;10.224;2023-05-07T19:18:48;14.30;1.00
5492;DHT22;2768;53.540;10.224;2023-05-07T19:24:41;14.30;1.00
5492;DHT22;2768;53.540;10.224;2023-05-07T19:30:38;14.20;1.00
5492;DHT22;2768;53.540;10.224;2023-05-07T19:36:31;14.10;1.00
5492;DHT22;2768;53.540;10.224;2023-05-07T19:42:25;14.10;1.50
5492;DHT22;2768;53.540;10.224;2023-05-07T19:48:19;14.10;5.60
5492;DHT22;2768;53.540;10.224;2023-05-07T19:54:12;14.10;8.90
5492;DHT22;2768;53.540;10.224;2023-05-07T20:00:07;14.00;9.70
5492;DHT22;2768;53.540;10.224;2023-05-07T20:06:07;13.90;10.10
5492;DHT22;2768;53.540;10.224;2023-05-07T20:12:00;13.90;13.70
5492;DHT22;2768;53.540;10.224;2023-05-07T20:17:54;13.80;17.60
5492;DHT22;2768;53.540;10.224;2023-05-07T20:23:49;13.80;20.80
5492;DHT22;2768;53.540;10.224;2023-05-07T20:29:43;13.70;22.90
5492;DHT22;2768;53.540;10.224;2023-05-07T20:35:36;13.60;24.30
5492;DHT22;2768;53.540;10.224;2023-05-07T20:41:31;13.60;25.50
5492;DHT22;2768;53.540;10.224;2023-05-07T20:47:24;13.60;26.30
5492;DHT22;2768;53.540;10.224;2023-05-07T20:53:18;13.50;28.30
5492;DHT22;2768;53.540;10.224;2023-05-07T20:59:13;13.50;30.60
5492;DHT22;2768;53.540;10.224;2023-05-07T21:05:07;13.30;33.30
5492;DHT22;2768;53.540;10.224;2023-05-07T21:11:01;13.30;34.90
5492;DHT22;2768;53.540;10.224;2023-05-07T21:16:56;13.30;34.30
5492;DHT22;2768;53.540;10.224;2023-05-07T21:22:51;13.30;35.30
5492;DHT22;2768;53.540;10.224;2023-05-07T21:28:44;13.20;37.50
5492;DHT22;2768;53.540;10.224;2023-05-07T21:34:39;13.20;39.50
5492;DHT22;2768;53.540;10.224;2023-05-07T21:40:32;13.20;40.80
5492;DHT22;2768;53.540;10.224;2023-05-07T21:46:26;13.10;41.60
5492;DHT22;2768;53.540;10.224;2023-05-07T21:52:20;13.00;45.10
5492;DHT22;2768;53.540;10.224;2023-05-07T21:58:16;12.80;50.90
5492;DHT22;2768;53.540;10.224;2023-05-07T22:04:10;12.70;46.50
5492;DHT22;2768;53.540;10.224;2023-05-07T22:10:06;12.70;48.40
5492;DHT22;2768;53.540;10.224;2023-05-07T22:15:59;12.70;52.00
5492;DHT22;2768;53.540;10.224;2023-05-07T22:21:52;12.60;52.90
5492;DHT22;2768;53.540;10.224;2023-05-07T22:27:48;12.60;51.40
5492;DHT22;2768;53.540;10.224;2023-05-07T22:33:41;12.60;56.60
5492;DHT22;2768;53.540;10.224;2023-05-07T22:39:34;12.60;55.50
5492;DHT22;2768;53.540;10.224;2023-05-07T22:45:29;12.60;52.70
5492;DHT22;2768;53.540;10.224;2023-05-07T22:51:22;12.50;55.40
5492;DHT22;2768;53.540;10.224;2023-05-07T22:57:16;12.50;55.30
5492;DHT22;2768;53.540;10.224;2023-05-07T23:23:14;12.40;59.10
5492;DHT22;2768;53.540;10.224;2023-05-07T23:29:07;12.30;60.90
5492;DHT22;2768;53.540;10.224;2023-05-07T23:35:01;12.30;60.70
5492;DHT22;2768;53.540;10.224;2023-05-07T23:40:56;12.20;60.60
5492;DHT22;2768;53.540;10.224;2023-05-07T23:46:49;12.20;60.80
5492;DHT22;2768;53.540;10.224;2023-05-07T23:52:42;12.00;61.50
5492;DHT22;2768;53.540;10.224;2023-05-07T23:58:36;11.90;60.30
